createdAt,value
2019-01-17T00:01:05.273Z,8.40
2019-01-17T00:03:41.076Z,7.35
2019-01-17T00:06:14.319Z,7.60
2019-01-17T00:08:56.295Z,8.05
2019-01-17T00:11:46.260Z,7.42
2019-01-17T00:14:34.690Z,8.58
2019-01-17T00:17:10.745Z,8.38
2019-01-17T00:19:49.977Z,9.13
2019-01-17T00:22:38.385Z,8.70
2019-01-17T00:25:26.755Z,10.38
2019-01-17T00:28:09.042Z,9.28
2019-01-17T00:30:48.397Z,10.28
2019-01-17T00:33:37.095Z,10.32
2019-01-17T00:36:19.417Z,12.90
2019-01-17T00:38:58.772Z,11.97
2019-01-17T00:41:40.867Z,11.18
2019-01-17T00:44:26.136Z,11.75
2019-01-17T00:46:59.351Z,13.03
2019-01-17T00:49:36.076Z,12.75
2019-01-17T00:52:12.141Z,13.15
2019-01-17T00:54:50.279Z,11.40
2019-01-17T00:57:38.659Z,13.13
2019-01-17T01:00:18.703Z,17.05
2019-01-17T01:02:51.928Z,13.35
2019-01-17T01:05:28.584Z,14.35
2019-01-17T01:08:18.383Z,18.00
2019-01-17T01:10:57.493Z,14.50
2019-01-17T01:13:30.716Z,14.28
2019-01-17T01:16:07.261Z,16.30
2019-01-17T01:18:47.856Z,13.00
2019-01-17T01:21:36.212Z,12.65
2019-01-17T01:24:18.279Z,11.88
2019-01-17T01:26:51.529Z,12.47
2019-01-17T01:29:33.558Z,10.20
2019-01-17T01:32:09.621Z,10.78
2019-01-17T01:34:48.728Z,9.48
2019-01-17T01:37:27.618Z,11.73
2019-01-17T01:40:00.842Z,11.22
2019-01-17T01:42:50.804Z,11.33
2019-01-17T01:45:24.029Z,11.05
2019-01-17T01:48:02.934Z,8.63
2019-01-17T01:50:41.759Z,8.15
2019-01-17T01:53:13.073Z,9.18
2019-01-17T01:55:44.421Z,8.80
2019-01-17T01:58:15.765Z,8.10
2019-01-17T02:00:47.056Z,8.38
2019-01-17T02:03:18.403Z,8.28
2019-01-17T02:05:49.693Z,8.00
2019-01-17T02:08:21.003Z,8.05
2019-01-17T02:10:52.300Z,7.45
2019-01-17T02:13:23.773Z,7.15
2019-01-17T02:15:55.306Z,7.67
2019-01-17T02:18:26.632Z,7.95
2019-01-17T02:20:58.078Z,8.88
2019-01-17T02:23:29.404Z,8.68
2019-01-17T02:26:00.674Z,9.95
2019-01-17T02:28:32.101Z,8.65
2019-01-17T02:31:03.398Z,12.80
2019-01-17T02:33:34.824Z,11.00
2019-01-17T02:36:06.201Z,11.83
2019-01-17T02:38:37.578Z,13.55
2019-01-17T02:41:08.852Z,14.25
2019-01-17T02:43:40.186Z,13.48
2019-01-17T02:46:11.477Z,15.90
2019-01-17T02:48:42.944Z,15.15
2019-01-17T02:51:14.234Z,18.27
2019-01-17T02:53:45.567Z,16.93
2019-01-17T02:56:16.816Z,18.95
2019-01-17T02:58:48.224Z,19.02
2019-01-17T03:01:19.514Z,19.37
2019-01-17T03:03:51.313Z,18.32
2019-01-17T03:06:22.626Z,19.80
2019-01-17T03:08:53.914Z,20.60
2019-01-17T03:11:25.230Z,21.30
2019-01-17T03:13:56.572Z,23.38
2019-01-17T03:16:27.842Z,21.12
2019-01-17T03:18:59.304Z,24.00
2019-01-17T03:21:30.584Z,24.30
2019-01-17T03:24:01.918Z,21.20
2019-01-17T03:26:33.308Z,22.82
2019-01-17T03:29:04.699Z,24.95
2019-01-17T03:31:36.104Z,25.90
2019-01-17T03:34:26.760Z,26.65
2019-01-17T03:36:58.164Z,26.80
2019-01-17T03:39:29.464Z,23.77
2019-01-17T03:42:00.747Z,24.35
2019-01-17T03:44:32.067Z,27.25
2019-01-17T03:47:03.532Z,25.65
2019-01-17T03:49:34.824Z,25.95
2019-01-17T03:52:06.133Z,28.80
2019-01-17T03:54:37.424Z,26.70
2019-01-17T03:57:08.802Z,27.70
2019-01-17T03:59:40.351Z,27.45
2019-01-17T04:02:11.793Z,28.00
2019-01-17T04:04:43.175Z,32.00
2019-01-17T04:07:14.494Z,30.80
2019-01-17T04:09:45.819Z,27.55
2019-01-17T04:12:17.135Z,28.52
2019-01-17T04:14:48.413Z,32.83
2019-01-17T04:17:19.725Z,31.93
2019-01-17T04:27:46.804Z,31.25
2019-01-17T04:30:18.211Z,34.60
2019-01-17T04:32:49.502Z,34.80
2019-01-17T04:35:20.912Z,35.33
2019-01-17T04:37:52.216Z,34.35
2019-01-17T04:40:23.486Z,33.83
2019-01-17T04:42:54.836Z,34.15
2019-01-17T04:45:26.080Z,32.20
2019-01-17T04:47:57.453Z,34.63
2019-01-17T04:50:28.731Z,31.65
2019-01-17T04:53:00.127Z,33.45
2019-01-17T04:55:31.545Z,33.88
2019-01-17T04:58:02.922Z,34.20
2019-01-17T05:00:34.225Z,35.90
2019-01-17T05:03:05.539Z,36.98
2019-01-17T05:05:36.787Z,35.90
2019-01-17T05:08:08.183Z,32.48
2019-01-17T05:10:39.480Z,34.67
2019-01-17T05:13:10.832Z,33.38
2019-01-17T05:15:42.316Z,37.65
2019-01-17T05:18:13.633Z,37.15
2019-01-17T05:20:44.916Z,37.17
2019-01-17T05:26:05.622Z,36.73
2019-01-17T05:28:37.650Z,35.40
2019-01-17T05:31:09.237Z,34.88
2019-01-17T05:33:40.563Z,37.10
2019-01-17T05:36:13.688Z,40.03
2019-01-17T05:38:45.110Z,40.12
2019-01-17T05:41:16.406Z,37.67
2019-01-17T05:43:48.013Z,47.35
2019-01-17T05:46:19.330Z,45.98
2019-01-17T05:48:50.753Z,47.93
2019-01-17T05:51:22.048Z,45.12
2019-01-17T05:53:53.496Z,49.33
2019-01-17T05:56:24.791Z,46.73
2019-01-17T05:58:56.778Z,47.70
2019-01-17T06:01:28.183Z,42.80
2019-01-17T06:03:59.666Z,57.03
2019-01-17T06:06:33.115Z,52.27
2019-01-17T06:09:07.272Z,48.20
2019-01-17T06:11:38.741Z,46.88
2019-01-17T06:14:10.021Z,46.02
2019-01-17T06:16:41.328Z,55.65
2019-01-17T06:19:12.709Z,52.60
2019-01-17T06:21:44.100Z,47.62
2019-01-17T06:24:15.477Z,48.30
2019-01-17T06:26:46.775Z,44.85
2019-01-17T06:29:18.084Z,48.52
2019-01-17T06:31:49.635Z,52.35
2019-01-17T06:34:20.931Z,47.62
2019-01-17T06:36:52.250Z,49.13
2019-01-17T06:39:23.618Z,55.28
2019-01-17T06:41:54.924Z,51.33
2019-01-17T06:44:26.348Z,50.48
2019-01-17T06:46:57.811Z,49.65
2019-01-17T06:49:29.074Z,48.25
2019-01-17T06:52:00.496Z,48.08
2019-01-17T06:54:31.771Z,46.37
2019-01-17T06:57:03.103Z,47.13
2019-01-17T06:59:34.443Z,45.05
2019-01-17T07:02:05.770Z,43.87
2019-01-17T07:07:44.962Z,43.30
2019-01-17T07:10:16.748Z,44.10
2019-01-17T07:12:48.028Z,42.03
2019-01-17T07:15:37.609Z,45.10
2019-01-17T07:18:08.931Z,38.42
2019-01-17T07:20:40.227Z,39.20
2019-01-17T07:23:11.532Z,36.77
2019-01-17T07:25:42.813Z,40.85
2019-01-17T07:28:14.148Z,39.15
2019-01-17T07:30:45.629Z,38.67
2019-01-17T07:33:16.950Z,36.42
2019-01-17T07:35:48.338Z,38.65
2019-01-17T07:38:19.641Z,36.60
2019-01-17T07:40:50.984Z,35.85
2019-01-17T07:43:22.293Z,36.90
2019-01-17T07:45:53.915Z,37.40
2019-01-17T07:48:25.349Z,36.03
2019-01-17T07:50:56.761Z,36.13
2019-01-17T07:53:28.107Z,33.05
2019-01-17T07:55:59.630Z,35.70
2019-01-17T07:58:30.972Z,32.63
2019-01-17T08:01:02.248Z,32.35
2019-01-17T08:03:33.625Z,33.50
2019-01-17T08:06:05.106Z,35.48
2019-01-17T08:08:36.442Z,33.58
2019-01-17T08:11:07.754Z,34.73
2019-01-17T08:13:39.107Z,35.90
2019-01-17T08:16:10.386Z,31.27
2019-01-17T08:18:41.691Z,29.92
2019-01-17T08:21:13.003Z,30.35
2019-01-17T08:23:44.308Z,27.58
2019-01-17T08:26:15.597Z,26.82
2019-01-17T08:28:46.956Z,25.40
2019-01-17T08:31:18.377Z,23.32
2019-01-17T08:33:49.821Z,21.55
2019-01-17T08:36:21.229Z,18.00
2019-01-17T08:38:52.607Z,15.78
2019-01-17T08:41:23.896Z,14.98
2019-01-17T08:43:55.355Z,13.83
2019-01-17T08:46:26.650Z,12.70
2019-01-17T08:48:58.066Z,13.80
2019-01-17T08:51:29.466Z,11.65
2019-01-17T08:54:00.849Z,12.10
2019-01-17T08:56:32.388Z,11.12
2019-01-17T08:59:03.775Z,10.93
2019-01-17T09:01:35.204Z,8.80
2019-01-17T09:04:08.671Z,9.35
2019-01-17T09:06:39.972Z,10.23
2019-01-17T09:09:11.307Z,9.40
2019-01-17T09:11:42.598Z,5.25
2019-01-17T09:14:14.130Z,4.65
2019-01-17T09:16:45.522Z,3.40
2019-01-17T09:19:16.923Z,2.30
2019-01-17T09:21:48.376Z,2.92
2019-01-17T09:24:19.688Z,3.30
2019-01-17T09:26:50.958Z,2.70
2019-01-17T09:29:22.336Z,1.10
2019-01-17T09:31:53.612Z,0.80
2019-01-17T09:34:25.047Z,0.90
2019-01-17T09:36:56.341Z,1.10
2019-01-17T09:39:27.673Z,1.40
2019-01-17T09:41:58.958Z,1.50
2019-01-17T09:44:30.288Z,1.50
2019-01-17T09:47:01.760Z,1.30
2019-01-17T09:49:33.068Z,1.77
2019-01-17T09:52:04.374Z,1.82
2019-01-17T09:54:35.979Z,2.15
2019-01-17T09:57:07.298Z,2.20
2019-01-17T09:59:38.595Z,1.57
2019-01-17T10:02:09.926Z,1.70
2019-01-17T10:04:41.217Z,1.77
2019-01-17T10:07:12.533Z,1.70
2019-01-17T10:09:43.992Z,1.25
2019-01-17T10:12:15.278Z,1.75
2019-01-17T10:14:46.586Z,1.60
2019-01-17T10:17:23.601Z,1.90
2019-01-17T10:20:12.808Z,1.10
2019-01-17T10:23:01.499Z,1.20
2019-01-17T10:25:41.246Z,1.40
2019-01-17T10:28:27.032Z,1.25
2019-01-17T10:31:25.202Z,1.20
2019-01-17T10:34:07.995Z,1.20
2019-01-17T10:36:47.767Z,1.60
2019-01-17T10:39:40.032Z,1.42
2019-01-17T10:42:41.639Z,2.30
2019-01-17T10:45:57.095Z,2.22
2019-01-17T10:48:45.991Z,2.12
2019-01-17T10:52:03.745Z,3.15
2019-01-17T10:55:30.600Z,3.52
2019-01-17T10:58:31.004Z,4.35
2019-01-17T11:01:20.317Z,5.85
2019-01-17T11:04:22.929Z,5.33
2019-01-17T11:07:17.482Z,4.95
2019-01-17T11:10:03.244Z,3.47
2019-01-17T11:12:43.323Z,4.62
2019-01-17T11:15:51.209Z,3.20
2019-01-17T11:18:46.692Z,2.50
2019-01-17T11:21:40.314Z,1.98
2019-01-17T11:24:35.077Z,1.67
2019-01-17T11:27:35.186Z,2.40
2019-01-17T11:30:55.175Z,2.40
2019-01-17T11:33:53.719Z,2.37
2019-01-17T11:36:43.185Z,1.32
2019-01-17T11:39:29.488Z,1.55
2019-01-17T11:42:21.905Z,1.30
2019-01-17T11:45:15.899Z,1.02
2019-01-17T11:48:08.026Z,1.32
2019-01-17T11:50:57.191Z,1.82
2019-01-17T11:53:48.770Z,1.10
2019-01-17T11:56:26.033Z,1.12
2019-01-17T11:59:32.256Z,0.82
2019-01-17T12:02:39.663Z,0.90
2019-01-17T12:05:11.310Z,1.20
2019-01-17T12:07:42.765Z,1.00
2019-01-17T12:10:14.368Z,1.20
2019-01-17T12:12:46.686Z,0.93
2019-01-17T12:15:18.265Z,1.20
2019-01-17T12:17:49.649Z,1.27
2019-01-17T12:20:21.158Z,1.05
2019-01-17T12:22:52.625Z,1.25
2019-01-17T12:25:23.900Z,2.35
2019-01-17T12:28:00.196Z,1.20
2019-01-17T12:30:31.613Z,1.62
2019-01-17T12:33:03.193Z,1.77
2019-01-17T12:35:34.499Z,1.40
2019-01-17T12:38:05.816Z,1.32
2019-01-17T12:40:37.161Z,1.82
2019-01-17T12:43:08.488Z,1.70
2019-01-17T12:45:40.006Z,1.67
2019-01-17T12:48:11.497Z,2.00
2019-01-17T12:50:42.845Z,1.82
2019-01-17T12:53:14.202Z,1.70
2019-01-17T12:55:45.725Z,1.50
2019-01-17T12:58:17.061Z,1.50
2019-01-17T13:00:52.282Z,2.10
2019-01-17T13:03:23.646Z,2.12
2019-01-17T13:05:55.012Z,2.10
2019-01-17T13:08:26.418Z,2.10
2019-01-17T13:10:57.734Z,2.27
2019-01-17T13:13:29.189Z,2.20
2019-01-17T13:16:00.649Z,2.45
2019-01-17T13:18:33.429Z,3.08
2019-01-17T13:21:04.862Z,2.77
2019-01-17T13:23:36.426Z,2.17
2019-01-17T13:26:07.720Z,1.77
2019-01-17T13:28:39.196Z,1.92
2019-01-17T13:31:10.473Z,2.05
2019-01-17T13:33:41.891Z,1.98
2019-01-17T13:36:13.408Z,2.62
2019-01-17T13:38:44.701Z,2.60
2019-01-17T13:41:16.060Z,2.02
2019-01-17T13:43:47.439Z,2.65
2019-01-17T13:46:18.745Z,2.60
2019-01-17T13:48:50.158Z,2.40
2019-01-17T13:51:21.544Z,2.22
2019-01-17T13:53:53.120Z,2.45
2019-01-17T13:56:24.533Z,2.08
2019-01-17T13:58:56.024Z,1.67
2019-01-17T14:01:27.592Z,2.72
2019-01-17T14:03:58.898Z,2.02
2019-01-17T14:06:30.290Z,1.40
2019-01-17T14:09:01.674Z,1.50
2019-01-17T14:11:33.013Z,1.82
2019-01-17T14:14:04.433Z,1.10
2019-01-17T14:16:35.936Z,1.27
2019-01-17T14:19:07.419Z,1.35
2019-01-17T14:21:58.693Z,0.80
2019-01-17T14:24:30.474Z,1.20
2019-01-17T14:27:01.920Z,1.00
2019-01-17T14:29:34.009Z,1.55
2019-01-17T14:32:05.864Z,1.07
2019-01-17T14:34:37.433Z,1.05
2019-01-17T14:37:09.014Z,1.20
2019-01-17T14:39:40.310Z,1.00
2019-01-17T14:42:11.779Z,1.20
2019-01-17T14:44:44.191Z,1.20
2019-01-17T14:47:15.476Z,0.30
2019-01-17T14:49:46.874Z,0.60
2019-01-17T14:52:18.309Z,0.37
2019-01-17T14:54:50.361Z,0.62
2019-01-17T14:57:22.128Z,1.00
2019-01-17T14:59:53.760Z,1.27
2019-01-17T15:02:25.115Z,2.08
2019-01-17T15:04:56.612Z,1.40
2019-01-17T15:07:28.065Z,1.50
2019-01-17T15:09:59.495Z,2.35
2019-01-17T15:12:31.001Z,2.50
2019-01-17T15:15:05.257Z,1.57
2019-01-17T15:17:36.892Z,1.87
2019-01-17T15:20:17.676Z,1.37
2019-01-17T15:22:51.428Z,1.67
2019-01-17T15:25:22.757Z,1.62
2019-01-17T15:27:54.470Z,1.57
2019-01-17T15:30:26.102Z,1.47
2019-01-17T15:32:57.790Z,1.30
2019-01-17T15:35:29.124Z,1.70
2019-01-17T15:38:01.059Z,1.70
2019-01-17T15:40:32.497Z,1.37
2019-01-17T15:43:03.757Z,2.02
2019-01-17T15:45:35.289Z,2.08
2019-01-17T15:48:07.365Z,2.83
2019-01-17T15:50:39.033Z,2.45
2019-01-17T15:53:10.468Z,2.30
2019-01-17T15:55:42.266Z,2.60
2019-01-17T15:58:14.028Z,3.33
2019-01-17T16:00:45.772Z,2.65
2019-01-17T16:03:36.215Z,2.55
2019-01-17T16:06:08.237Z,1.77
2019-01-17T16:08:39.916Z,2.50
2019-01-17T16:11:11.278Z,2.10
2019-01-17T16:13:42.660Z,2.40
2019-01-17T16:16:14.293Z,2.80
2019-01-17T16:18:45.821Z,3.55
2019-01-17T16:21:18.190Z,4.67
2019-01-17T16:23:49.690Z,4.35
2019-01-17T16:26:21.340Z,5.15
2019-01-17T16:28:52.814Z,6.25
2019-01-17T16:31:24.831Z,6.45
2019-01-17T16:33:56.455Z,6.75
2019-01-17T16:36:27.738Z,7.65
2019-01-17T16:38:59.329Z,7.87
2019-01-17T16:41:30.689Z,7.72
2019-01-17T16:44:02.050Z,9.35
2019-01-17T16:46:33.440Z,8.70
2019-01-17T16:49:04.936Z,7.50
2019-01-17T16:51:36.245Z,6.83
2019-01-17T16:54:07.592Z,7.37
2019-01-17T16:56:38.859Z,8.90
2019-01-17T16:59:10.197Z,6.80
2019-01-17T17:01:59.990Z,6.83
2019-01-17T17:04:31.417Z,4.20
2019-01-17T17:07:02.721Z,4.50
2019-01-17T17:09:34.017Z,3.10
2019-01-17T17:12:05.307Z,3.30
2019-01-17T17:14:36.633Z,5.03
2019-01-17T17:17:07.931Z,4.75
2019-01-17T17:19:39.291Z,6.67
2019-01-17T17:22:10.688Z,6.55
2019-01-17T17:24:42.028Z,7.72
2019-01-17T17:27:13.395Z,8.53
2019-01-17T17:29:44.722Z,7.25
2019-01-17T17:32:16.095Z,9.30
2019-01-17T17:34:47.424Z,9.68
2019-01-17T17:37:18.731Z,10.82
2019-01-17T17:39:50.082Z,11.48
2019-01-17T17:42:21.582Z,12.03
2019-01-17T17:44:52.935Z,11.50
2019-01-17T17:47:24.573Z,14.28
2019-01-17T17:49:57.233Z,16.48
2019-01-17T17:52:28.742Z,15.88
2019-01-17T17:55:00.231Z,18.37
2019-01-17T17:57:31.818Z,16.45
2019-01-17T18:00:09.187Z,13.90
2019-01-17T18:02:40.992Z,18.30
2019-01-17T18:05:12.597Z,16.40
2019-01-17T18:07:44.022Z,16.57
2019-01-17T18:10:15.784Z,17.40
2019-01-17T18:12:51.144Z,18.77
2019-01-17T18:15:22.492Z,16.17
2019-01-17T18:17:54.044Z,16.67
2019-01-17T18:20:25.456Z,12.90
2019-01-17T18:22:56.835Z,14.47
2019-01-17T18:25:28.153Z,8.98
2019-01-17T18:27:59.518Z,8.35
2019-01-17T18:30:31.227Z,7.90
2019-01-17T18:33:03.247Z,6.12
2019-01-17T18:35:34.803Z,6.45
2019-01-17T18:38:06.202Z,7.12
2019-01-17T18:40:37.530Z,7.45
2019-01-17T18:43:08.908Z,7.50
2019-01-17T18:45:40.466Z,6.87
2019-01-17T18:48:12.173Z,6.58
2019-01-17T18:50:43.610Z,5.87
2019-01-17T18:53:14.895Z,6.28
2019-01-17T18:55:46.421Z,6.55
2019-01-17T18:58:17.694Z,7.12
2019-01-17T19:00:48.986Z,7.47
2019-01-17T19:03:20.673Z,8.50
2019-01-17T19:05:52.065Z,7.97
2019-01-17T19:08:25.151Z,6.22
2019-01-17T19:10:56.403Z,5.78
2019-01-17T19:13:27.813Z,6.60
2019-01-17T19:15:59.307Z,7.40
2019-01-17T19:18:30.613Z,8.48
2019-01-17T19:21:02.004Z,7.30
2019-01-17T19:23:33.319Z,6.85
2019-01-17T19:26:04.802Z,6.62
2019-01-17T19:28:36.571Z,6.08
2019-01-17T19:31:08.122Z,4.63
2019-01-17T19:33:39.886Z,4.95
2019-01-17T19:36:11.271Z,4.50
2019-01-17T19:38:42.914Z,5.85
2019-01-17T19:41:14.546Z,4.53
2019-01-17T19:43:45.854Z,4.25
2019-01-17T19:46:17.138Z,4.75
2019-01-17T19:48:48.515Z,4.70
2019-01-17T19:51:19.785Z,3.42
2019-01-17T19:53:51.223Z,3.90
2019-01-17T19:56:22.617Z,4.92
2019-01-17T19:58:53.974Z,4.05
2019-01-17T20:01:25.256Z,8.85
2019-01-17T20:03:56.740Z,10.25
2019-01-17T20:06:28.025Z,15.13
2019-01-17T20:08:59.437Z,42.20
2019-01-17T20:11:30.808Z,39.18
2019-01-17T20:14:02.530Z,55.88
2019-01-17T20:16:33.815Z,56.70
2019-01-17T20:19:05.431Z,42.13
2019-01-17T20:21:36.752Z,39.85
2019-01-17T20:24:08.060Z,36.45
2019-01-17T20:26:39.451Z,23.60
2019-01-17T20:29:10.959Z,16.62
2019-01-17T20:31:42.356Z,15.03
2019-01-17T20:34:32.400Z,13.28
2019-01-17T20:37:03.801Z,12.45
2019-01-17T20:39:36.589Z,12.63
2019-01-17T20:42:07.975Z,10.30
2019-01-17T20:44:39.488Z,13.43
2019-01-17T20:47:11.101Z,14.07
2019-01-17T20:49:42.599Z,19.35
2019-01-17T20:52:14.094Z,18.32
2019-01-17T20:54:45.507Z,19.92
2019-01-17T20:57:17.769Z,24.43
2019-01-17T20:59:49.034Z,19.73
2019-01-17T21:02:20.489Z,22.52
2019-01-17T21:04:51.893Z,16.97
2019-01-17T21:07:23.199Z,21.37
2019-01-17T21:09:54.484Z,21.37
2019-01-17T21:12:25.811Z,28.10
2019-01-17T21:14:57.104Z,41.53
2019-01-17T21:17:28.591Z,27.22
2019-01-17T21:20:01.625Z,19.40
2019-01-17T21:22:33.032Z,20.08
2019-01-17T21:25:12.890Z,21.23
2019-01-17T21:27:44.227Z,29.07
2019-01-17T21:30:24.838Z,30.68
2019-01-17T21:32:56.184Z,31.37
2019-01-17T21:35:27.482Z,38.20
2019-01-17T21:37:58.807Z,34.08
2019-01-17T21:40:30.083Z,29.82
2019-01-17T21:43:01.577Z,35.10
2019-01-17T21:45:32.851Z,39.60
2019-01-17T21:48:04.239Z,44.77
2019-01-17T21:50:35.644Z,48.15
2019-01-17T21:53:06.977Z,58.70
2019-01-17T21:55:38.418Z,71.97
2019-01-17T21:58:09.788Z,70.60
2019-01-17T22:00:41.174Z,49.25
2019-01-17T22:03:12.631Z,43.00
2019-01-17T22:05:44.118Z,40.63
2019-01-17T22:08:15.517Z,32.38
2019-01-17T22:10:46.807Z,25.08
2019-01-17T22:13:18.123Z,33.90
2019-01-17T22:15:49.473Z,30.12
2019-01-17T22:18:20.968Z,18.37
2019-01-17T22:20:52.296Z,12.85
2019-01-17T22:23:23.574Z,21.00
2019-01-17T22:25:54.930Z,17.67
2019-01-17T22:28:26.225Z,10.82
2019-01-17T22:30:57.632Z,9.55
2019-01-17T22:33:28.971Z,10.82
2019-01-17T22:36:00.260Z,4.97
2019-01-17T22:38:31.554Z,3.67
2019-01-17T22:41:03.133Z,3.85
2019-01-17T22:43:34.457Z,3.50
2019-01-17T22:46:05.844Z,3.22
2019-01-17T22:48:37.204Z,3.77
2019-01-17T22:51:08.575Z,3.85
2019-01-17T22:53:39.896Z,3.60
2019-01-17T22:56:11.201Z,4.10
2019-01-17T22:58:42.491Z,5.47
2019-01-17T23:01:15.198Z,5.05
2019-01-17T23:03:46.495Z,5.30
2019-01-17T23:06:17.826Z,4.50
2019-01-17T23:08:49.157Z,4.20
2019-01-17T23:11:20.811Z,5.22
2019-01-17T23:13:52.205Z,3.80
2019-01-17T23:16:23.558Z,5.70
2019-01-17T23:18:54.834Z,5.47
2019-01-17T23:21:26.266Z,4.80
2019-01-17T23:23:57.583Z,3.98
2019-01-17T23:26:28.912Z,5.03
2019-01-17T23:29:00.266Z,4.95
2019-01-17T23:31:31.556Z,5.33
2019-01-17T23:34:02.970Z,3.80
2019-01-17T23:36:34.288Z,4.35
2019-01-17T23:39:07.492Z,4.92
2019-01-17T23:41:40.725Z,5.28
2019-01-17T23:44:11.995Z,4.70
2019-01-17T23:46:43.400Z,5.08
2019-01-17T23:49:14.761Z,5.10
2019-01-17T23:51:46.042Z,7.35
2019-01-17T23:54:17.348Z,5.05
2019-01-17T23:56:48.650Z,5.55
2019-01-17T23:59:22.748Z,5.10
